sensor_id;sensor_type;location;lat;lon;timestamp;temperature;humidity
6462;DHT22;3264;42.862;25.098;2022-12-29T00:00:16;4.00;99.90
6462;DHT22;3264;42.862;25.098;2022-12-29T00:02:45;3.90;99.90
6462;DHT22;3264;42.862;25.098;2022-12-29T00:05:12;3.90;99.90
6462;DHT22;3264;42.862;25.098;2022-12-29T00:07:41;3.80;99.90
6462;DHT22;3264;42.862;25.098;2022-12-29T00:10:11;3.80;99.90
6462;DHT22;3264;42.862;25.098;2022-12-29T00:12:39;3.70;99.90
6462;DHT22;3264;42.862;25.098;2022-12-29T00:15:25;3.50;99.90
6462;DHT22;3264;42.862;25.098;2022-12-29T00:18:05;3.40;99.90
6462;DHT22;3264;42.862;25.098;2022-12-29T00:20:34;3.30;99.90
6462;DHT22;3264;42.862;25.098;2022-12-29T00:23:22;3.40;99.90
6462;DHT22;3264;42.862;25.098;2022-12-29T00:26:13;3.40;99.90
6462;DHT22;3264;42.862;25.098;2022-12-29T00:28:59;3.40;99.90
6462;DHT22;3264;42.862;25.098;2022-12-29T00:31:49;3.40;99.90
6462;DHT22;3264;42.862;25.098;2022-12-29T00:34:35;3.40;99.90
6462;DHT22;3264;42.862;25.098;2022-12-29T00:37:21;3.50;99.90
6462;DHT22;3264;42.862;25.098;2022-12-29T00:40:09;3.50;99.90
6462;DHT22;3264;42.862;25.098;2022-12-29T00:42:56;3.40;99.90
6462;DHT22;3264;42.862;25.098;2022-12-29T00:45:42;3.50;99.90
6462;DHT22;3264;42.862;25.098;2022-12-29T00:48:09;3.60;99.90
6462;DHT22;3264;42.862;25.098;2022-12-29T00:50:38;3.60;99.90
6462;DHT22;3264;42.862;25.098;2022-12-29T00:53:05;3.70;99.90
6462;DHT22;3264;42.862;25.098;2022-12-29T00:55:36;3.70;99.90
6462;DHT22;3264;42.862;25.098;2022-12-29T00:58:06;3.70;99.90
6462;DHT22;3264;42.862;25.098;2022-12-29T01:00:35;3.70;99.90
6462;DHT22;3264;42.862;25.098;2022-12-29T01:03:04;3.60;99.90
6462;DHT22;3264;42.862;25.098;2022-12-29T01:05:36;3.70;99.90
6462;DHT22;3264;42.862;25.098;2022-12-29T01:08:10;3.60;99.90
6462;DHT22;3264;42.862;25.098;2022-12-29T01:10:39;3.60;99.90
6462;DHT22;3264;42.862;25.098;2022-12-29T01:13:08;3.70;99.90
6462;DHT22;3264;42.862;25.098;2022-12-29T01:15:37;3.70;99.90
6462;DHT22;3264;42.862;25.098;2022-12-29T01:18:05;3.60;99.90
6462;DHT22;3264;42.862;25.098;2022-12-29T01:20:34;3.60;99.90
6462;DHT22;3264;42.862;25.098;2022-12-29T01:23:02;3.60;99.90
6462;DHT22;3264;42.862;25.098;2022-12-29T01:25:31;3.70;99.90
6462;DHT22;3264;42.862;25.098;2022-12-29T01:27:59;3.80;99.90
6462;DHT22;3264;42.862;25.098;2022-12-29T01:30:29;3.90;99.90
6462;DHT22;3264;42.862;25.098;2022-12-29T01:32:57;3.90;99.90
6462;DHT22;3264;42.862;25.098;2022-12-29T01:35:24;4.00;99.90
6462;DHT22;3264;42.862;25.098;2022-12-29T01:37:53;3.90;99.90
6462;DHT22;3264;42.862;25.098;2022-12-29T01:40:22;4.00;99.90
6462;DHT22;3264;42.862;25.098;2022-12-29T01:42:49;4.10;99.90
6462;DHT22;3264;42.862;25.098;2022-12-29T01:45:19;4.10;99.90
6462;DHT22;3264;42.862;25.098;2022-12-29T01:47:52;4.10;99.90
6462;DHT22;3264;42.862;25.098;2022-12-29T01:50:26;4.10;99.90
6462;DHT22;3264;42.862;25.098;2022-12-29T01:52:58;4.20;99.90
6462;DHT22;3264;42.862;25.098;2022-12-29T01:55:28;4.20;99.90
6462;DHT22;3264;42.862;25.098;2022-12-29T01:58:01;4.20;99.90
6462;DHT22;3264;42.862;25.098;2022-12-29T02:00:32;4.30;99.90
6462;DHT22;3264;42.862;25.098;2022-12-29T02:03:02;4.30;99.90
6462;DHT22;3264;42.862;25.098;2022-12-29T02:05:35;4.30;99.90
6462;DHT22;3264;42.862;25.098;2022-12-29T02:08:05;4.20;99.90
6462;DHT22;3264;42.862;25.098;2022-12-29T02:10:36;4.20;99.90
6462;DHT22;3264;42.862;25.098;2022-12-29T02:13:05;4.30;99.90
6462;DHT22;3264;42.862;25.098;2022-12-29T02:15:41;4.30;99.90
6462;DHT22;3264;42.862;25.098;2022-12-29T02:18:25;4.30;99.90
6462;DHT22;3264;42.862;25.098;2022-12-29T02:24:35;4.30;99.90
6462;DHT22;3264;42.862;25.098;2022-12-29T02:30:28;4.30;99.90
6462;DHT22;3264;42.862;25.098;2022-12-29T02:33:04;4.40;99.90
6462;DHT22;3264;42.862;25.098;2022-12-29T02:35:43;4.50;99.90
6462;DHT22;3264;42.862;25.098;2022-12-29T02:38:20;4.50;99.90
6462;DHT22;3264;42.862;25.098;2022-12-29T02:40:55;4.50;99.90
6462;DHT22;3264;42.862;25.098;2022-12-29T02:43:29;4.60;99.90
6462;DHT22;3264;42.862;25.098;2022-12-29T02:46:04;4.60;99.90
6462;DHT22;3264;42.862;25.098;2022-12-29T02:48:41;4.50;99.90
6462;DHT22;3264;42.862;25.098;2022-12-29T02:51:15;4.50;99.90
6462;DHT22;3264;42.862;25.098;2022-12-29T02:53:46;4.50;99.90
6462;DHT22;3264;42.862;25.098;2022-12-29T02:56:31;4.40;99.90
6462;DHT22;3264;42.862;25.098;2022-12-29T02:59:01;4.30;99.90
6462;DHT22;3264;42.862;25.098;2022-12-29T03:01:59;4.30;99.90
6462;DHT22;3264;42.862;25.098;2022-12-29T03:04:59;4.20;99.90
6462;DHT22;3264;42.862;25.098;2022-12-29T03:07:39;4.20;99.90
6462;DHT22;3264;42.862;25.098;2022-12-29T03:10:17;4.00;99.90
6462;DHT22;3264;42.862;25.098;2022-12-29T03:12:51;4.00;99.90
6462;DHT22;3264;42.862;25.098;2022-12-29T03:15:43;4.00;99.90
6462;DHT22;3264;42.862;25.098;2022-12-29T03:18:37;4.00;99.90
6462;DHT22;3264;42.862;25.098;2022-12-29T03:21:11;3.90;99.90
6462;DHT22;3264;42.862;25.098;2022-12-29T03:23:44;3.80;99.90
6462;DHT22;3264;42.862;25.098;2022-12-29T03:26:17;3.80;99.90
6462;DHT22;3264;42.862;25.098;2022-12-29T03:28:51;3.70;99.90
6462;DHT22;3264;42.862;25.098;2022-12-29T03:31:23;3.70;99.90
6462;DHT22;3264;42.862;25.098;2022-12-29T03:33:54;3.80;99.90
6462;DHT22;3264;42.862;25.098;2022-12-29T03:36:27;3.80;99.90
6462;DHT22;3264;42.862;25.098;2022-12-29T03:39:05;3.60;99.90
6462;DHT22;3264;42.862;25.098;2022-12-29T03:41:41;3.60;99.90
6462;DHT22;3264;42.862;25.098;2022-12-29T03:44:12;3.60;99.90
6462;DHT22;3264;42.862;25.098;2022-12-29T03:46:40;3.50;99.90
6462;DHT22;3264;42.862;25.098;2022-12-29T03:49:10;3.50;99.90
6462;DHT22;3264;42.862;25.098;2022-12-29T03:51:39;3.40;99.90
6462;DHT22;3264;42.862;25.098;2022-12-29T03:54:06;3.40;99.90
6462;DHT22;3264;42.862;25.098;2022-12-29T03:56:35;3.30;99.90
6462;DHT22;3264;42.862;25.098;2022-12-29T03:59:03;3.20;99.90
6462;DHT22;3264;42.862;25.098;2022-12-29T04:01:32;3.20;99.90
6462;DHT22;3264;42.862;25.098;2022-12-29T04:04:00;3.10;99.90
6462;DHT22;3264;42.862;25.098;2022-12-29T04:06:30;3.00;99.90
6462;DHT22;3264;42.862;25.098;2022-12-29T04:08:58;2.80;99.90
6462;DHT22;3264;42.862;25.098;2022-12-29T04:11:26;2.70;99.90
6462;DHT22;3264;42.862;25.098;2022-12-29T04:13:54;2.60;99.90
6462;DHT22;3264;42.862;25.098;2022-12-29T04:16:23;2.60;99.90
6462;DHT22;3264;42.862;25.098;2022-12-29T04:18:50;2.70;99.90
6462;DHT22;3264;42.862;25.098;2022-12-29T04:21:19;2.70;99.90
6462;DHT22;3264;42.862;25.098;2022-12-29T04:23:48;2.70;99.90
6462;DHT22;3264;42.862;25.098;2022-12-29T04:26:17;2.70;99.90
6462;DHT22;3264;42.862;25.098;2022-12-29T04:28:44;2.60;99.90
6462;DHT22;3264;42.862;25.098;2022-12-29T04:31:13;2.60;99.90
6462;DHT22;3264;42.862;25.098;2022-12-29T04:33:41;2.50;99.90
6462;DHT22;3264;42.862;25.098;2022-12-29T04:36:10;2.40;99.90
6462;DHT22;3264;42.862;25.098;2022-12-29T04:38:39;2.50;99.90
6462;DHT22;3264;42.862;25.098;2022-12-29T04:41:08;2.40;99.90
6462;DHT22;3264;42.862;25.098;2022-12-29T04:43:35;2.20;99.90
6462;DHT22;3264;42.862;25.098;2022-12-29T04:46:03;2.20;99.90
6462;DHT22;3264;42.862;25.098;2022-12-29T04:48:32;2.20;99.90
6462;DHT22;3264;42.862;25.098;2022-12-29T04:51:00;2.20;99.90
6462;DHT22;3264;42.862;25.098;2022-12-29T04:53:29;2.20;99.90
6462;DHT22;3264;42.862;25.098;2022-12-29T04:55:56;2.20;99.90
6462;DHT22;3264;42.862;25.098;2022-12-29T04:58:26;2.20;99.90
6462;DHT22;3264;42.862;25.098;2022-12-29T05:00:54;2.20;99.90
6462;DHT22;3264;42.862;25.098;2022-12-29T05:03:23;2.20;99.90
6462;DHT22;3264;42.862;25.098;2022-12-29T05:05:53;2.20;99.90
6462;DHT22;3264;42.862;25.098;2022-12-29T05:08:21;2.20;99.90
6462;DHT22;3264;42.862;25.098;2022-12-29T05:10:50;2.20;99.90
6462;DHT22;3264;42.862;25.098;2022-12-29T05:13:19;2.10;99.90
6462;DHT22;3264;42.862;25.098;2022-12-29T05:15:50;2.00;99.90
6462;DHT22;3264;42.862;25.098;2022-12-29T05:18:19;1.90;99.90
6462;DHT22;3264;42.862;25.098;2022-12-29T05:20:48;1.80;99.90
6462;DHT22;3264;42.862;25.098;2022-12-29T05:23:17;1.80;99.90
6462;DHT22;3264;42.862;25.098;2022-12-29T05:25:45;1.70;99.90
6462;DHT22;3264;42.862;25.098;2022-12-29T05:28:15;1.80;99.90
6462;DHT22;3264;42.862;25.098;2022-12-29T05:30:42;1.90;99.90
6462;DHT22;3264;42.862;25.098;2022-12-29T05:33:12;2.10;99.90
6462;DHT22;3264;42.862;25.098;2022-12-29T05:35:41;2.20;99.90
6462;DHT22;3264;42.862;25.098;2022-12-29T05:38:10;2.20;99.90
6462;DHT22;3264;42.862;25.098;2022-12-29T05:40:38;2.20;99.90
6462;DHT22;3264;42.862;25.098;2022-12-29T05:43:06;2.20;99.90
6462;DHT22;3264;42.862;25.098;2022-12-29T05:45:36;2.10;99.90
6462;DHT22;3264;42.862;25.098;2022-12-29T05:48:05;2.10;99.90
6462;DHT22;3264;42.862;25.098;2022-12-29T05:50:35;2.10;99.90
6462;DHT22;3264;42.862;25.098;2022-12-29T05:53:02;2.00;99.90
6462;DHT22;3264;42.862;25.098;2022-12-29T05:55:30;2.00;99.90
6462;DHT22;3264;42.862;25.098;2022-12-29T05:57:59;2.00;99.90
6462;DHT22;3264;42.862;25.098;2022-12-29T06:00:26;2.00;99.90
6462;DHT22;3264;42.862;25.098;2022-12-29T06:02:54;2.20;99.90
6462;DHT22;3264;42.862;25.098;2022-12-29T06:05:22;2.20;99.90
6462;DHT22;3264;42.862;25.098;2022-12-29T06:07:51;2.30;99.90
6462;DHT22;3264;42.862;25.098;2022-12-29T06:10:19;2.20;99.90
6462;DHT22;3264;42.862;25.098;2022-12-29T06:12:47;2.20;99.90
6462;DHT22;3264;42.862;25.098;2022-12-29T06:15:15;2.20;99.90
6462;DHT22;3264;42.862;25.098;2022-12-29T06:17:44;2.10;99.90
6462;DHT22;3264;42.862;25.098;2022-12-29T06:20:13;2.10;99.90
6462;DHT22;3264;42.862;25.098;2022-12-29T06:22:40;2.10;99.90
6462;DHT22;3264;42.862;25.098;2022-12-29T06:25:10;2.00;99.90
6462;DHT22;3264;42.862;25.098;2022-12-29T06:27:38;2.20;99.90
6462;DHT22;3264;42.862;25.098;2022-12-29T06:30:07;3.50;99.90
6462;DHT22;3264;42.862;25.098;2022-12-29T06:32:35;5.50;99.90
6462;DHT22;3264;42.862;25.098;2022-12-29T06:35:04;6.30;98.80
6462;DHT22;3264;42.862;25.098;2022-12-29T06:37:33;6.70;97.40
6462;DHT22;3264;42.862;25.098;2022-12-29T06:40:04;6.90;95.90
6462;DHT22;3264;42.862;25.098;2022-12-29T06:42:34;6.50;98.30
6462;DHT22;3264;42.862;25.098;2022-12-29T06:45:02;6.80;98.00
6462;DHT22;3264;42.862;25.098;2022-12-29T06:47:31;6.70;96.90
6462;DHT22;3264;42.862;25.098;2022-12-29T06:50:00;6.30;98.70
6462;DHT22;3264;42.862;25.098;2022-12-29T06:52:30;6.30;98.30
6462;DHT22;3264;42.862;25.098;2022-12-29T06:54:57;5.40;99.50
6462;DHT22;3264;42.862;25.098;2022-12-29T06:57:26;4.90;99.90
6462;DHT22;3264;42.862;25.098;2022-12-29T06:59:56;4.60;99.90
6462;DHT22;3264;42.862;25.098;2022-12-29T07:02:24;4.20;99.90
6462;DHT22;3264;42.862;25.098;2022-12-29T07:04:52;4.40;99.90
6462;DHT22;3264;42.862;25.098;2022-12-29T07:07:21;4.70;99.90
6462;DHT22;3264;42.862;25.098;2022-12-29T07:09:49;4.80;99.90
6462;DHT22;3264;42.862;25.098;2022-12-29T07:12:17;4.80;99.90
6462;DHT22;3264;42.862;25.098;2022-12-29T07:14:44;4.40;99.90
6462;DHT22;3264;42.862;25.098;2022-12-29T07:17:13;4.30;99.90
6462;DHT22;3264;42.862;25.098;2022-12-29T07:19:42;4.50;99.90
6462;DHT22;3264;42.862;25.098;2022-12-29T07:22:11;4.90;99.90
6462;DHT22;3264;42.862;25.098;2022-12-29T07:24:39;5.10;99.90
6462;DHT22;3264;42.862;25.098;2022-12-29T07:27:22;5.20;99.90
6462;DHT22;3264;42.862;25.098;2022-12-29T07:29:50;5.30;99.90
6462;DHT22;3264;42.862;25.098;2022-12-29T07:32:20;5.50;99.90
6462;DHT22;3264;42.862;25.098;2022-12-29T07:34:47;5.50;99.90
6462;DHT22;3264;42.862;25.098;2022-12-29T07:37:16;5.90;99.90
6462;DHT22;3264;42.862;25.098;2022-12-29T07:39:44;6.30;99.90
6462;DHT22;3264;42.862;25.098;2022-12-29T07:42:12;6.70;99.90
6462;DHT22;3264;42.862;25.098;2022-12-29T07:44:41;7.80;99.90
6462;DHT22;3264;42.862;25.098;2022-12-29T07:47:09;9.60;95.50
6462;DHT22;3264;42.862;25.098;2022-12-29T07:49:38;9.70;90.80
6462;DHT22;3264;42.862;25.098;2022-12-29T07:52:06;10.50;90.40
6462;DHT22;3264;42.862;25.098;2022-12-29T07:54:35;11.70;83.80
6462;DHT22;3264;42.862;25.098;2022-12-29T07:57:04;13.20;76.00
6462;DHT22;3264;42.862;25.098;2022-12-29T07:59:32;11.60;75.70
6462;DHT22;3264;42.862;25.098;2022-12-29T08:02:01;13.50;72.90
6462;DHT22;3264;42.862;25.098;2022-12-29T08:04:29;13.00;71.00
6462;DHT22;3264;42.862;25.098;2022-12-29T08:06:58;14.40;66.70
6462;DHT22;3264;42.862;25.098;2022-12-29T08:09:27;15.60;62.30
6462;DHT22;3264;42.862;25.098;2022-12-29T08:11:55;16.40;60.20
6462;DHT22;3264;42.862;25.098;2022-12-29T08:14:24;16.10;58.80
6462;DHT22;3264;42.862;25.098;2022-12-29T08:16:51;15.50;59.90
6462;DHT22;3264;42.862;25.098;2022-12-29T08:19:19;14.90;61.20
6462;DHT22;3264;42.862;25.098;2022-12-29T08:21:48;14.90;60.80
6462;DHT22;3264;42.862;25.098;2022-12-29T08:24:18;15.70;60.00
6462;DHT22;3264;42.862;25.098;2022-12-29T08:26:46;15.80;58.10
6462;DHT22;3264;42.862;25.098;2022-12-29T08:29:14;18.00;57.10
6462;DHT22;3264;42.862;25.098;2022-12-29T08:31:42;18.70;54.90
6462;DHT22;3264;42.862;25.098;2022-12-29T08:34:11;18.10;53.90
6462;DHT22;3264;42.862;25.098;2022-12-29T08:36:40;16.00;56.30
6462;DHT22;3264;42.862;25.098;2022-12-29T08:39:11;16.70;55.70
6462;DHT22;3264;42.862;25.098;2022-12-29T08:41:40;16.70;55.10
6462;DHT22;3264;42.862;25.098;2022-12-29T08:44:09;16.60;56.20
6462;DHT22;3264;42.862;25.098;2022-12-29T08:46:37;16.90;56.50
6462;DHT22;3264;42.862;25.098;2022-12-29T08:49:06;17.00;55.80
6462;DHT22;3264;42.862;25.098;2022-12-29T08:51:35;17.30;53.50
6462;DHT22;3264;42.862;25.098;2022-12-29T08:54:03;17.60;52.30
6462;DHT22;3264;42.862;25.098;2022-12-29T08:56:31;17.10;53.80
6462;DHT22;3264;42.862;25.098;2022-12-29T08:59:02;17.20;54.30
6462;DHT22;3264;42.862;25.098;2022-12-29T09:01:29;18.30;52.50
6462;DHT22;3264;42.862;25.098;2022-12-29T09:04:00;18.60;51.90
6462;DHT22;3264;42.862;25.098;2022-12-29T09:06:43;18.80;50.60
6462;DHT22;3264;42.862;25.098;2022-12-29T09:09:11;18.50;51.20
6462;DHT22;3264;42.862;25.098;2022-12-29T09:11:41;18.90;51.70
6462;DHT22;3264;42.862;25.098;2022-12-29T09:14:11;17.80;50.10
6462;DHT22;3264;42.862;25.098;2022-12-29T09:16:41;16.90;52.40
6462;DHT22;3264;42.862;25.098;2022-12-29T09:19:26;17.40;52.60
6462;DHT22;3264;42.862;25.098;2022-12-29T09:21:53;17.30;52.50
6462;DHT22;3264;42.862;25.098;2022-12-29T09:24:21;15.90;53.90
6462;DHT22;3264;42.862;25.098;2022-12-29T09:26:49;15.10;57.50
6462;DHT22;3264;42.862;25.098;2022-12-29T09:29:18;16.20;57.70
6462;DHT22;3264;42.862;25.098;2022-12-29T09:31:47;14.80;58.10
6462;DHT22;3264;42.862;25.098;2022-12-29T09:34:15;13.70;61.80
6462;DHT22;3264;42.862;25.098;2022-12-29T09:36:43;13.90;62.40
6462;DHT22;3264;42.862;25.098;2022-12-29T09:39:12;14.50;62.90
6462;DHT22;3264;42.862;25.098;2022-12-29T09:41:46;14.40;61.20
6462;DHT22;3264;42.862;25.098;2022-12-29T09:44:22;14.00;61.50
6462;DHT22;3264;42.862;25.098;2022-12-29T09:46:54;14.30;62.20
6462;DHT22;3264;42.862;25.098;2022-12-29T09:49:28;14.10;62.60
6462;DHT22;3264;42.862;25.098;2022-12-29T09:52:02;14.10;61.80
6462;DHT22;3264;42.862;25.098;2022-12-29T09:54:40;14.40;61.20
6462;DHT22;3264;42.862;25.098;2022-12-29T09:57:16;14.20;63.30
6462;DHT22;3264;42.862;25.098;2022-12-29T09:59:49;14.20;63.00
6462;DHT22;3264;42.862;25.098;2022-12-29T10:02:31;13.80;63.10
6462;DHT22;3264;42.862;25.098;2022-12-29T10:05:01;14.00;62.60
6462;DHT22;3264;42.862;25.098;2022-12-29T10:07:41;13.80;63.30
6462;DHT22;3264;42.862;25.098;2022-12-29T10:10:34;14.10;63.70
6462;DHT22;3264;42.862;25.098;2022-12-29T10:13:18;16.20;60.90
6462;DHT22;3264;42.862;25.098;2022-12-29T10:15:59;16.60;57.40
6462;DHT22;3264;42.862;25.098;2022-12-29T10:18:50;15.70;55.00
6462;DHT22;3264;42.862;25.098;2022-12-29T10:21:29;15.40;57.50
6462;DHT22;3264;42.862;25.098;2022-12-29T10:24:00;15.10;58.50
6462;DHT22;3264;42.862;25.098;2022-12-29T10:26:36;15.70;58.40
6462;DHT22;3264;42.862;25.098;2022-12-29T10:29:05;14.90;58.70
6462;DHT22;3264;42.862;25.098;2022-12-29T10:31:38;14.30;59.90
6462;DHT22;3264;42.862;25.098;2022-12-29T10:34:17;15.00;59.50
6462;DHT22;3264;42.862;25.098;2022-12-29T10:36:49;15.20;57.00
6462;DHT22;3264;42.862;25.098;2022-12-29T10:39:21;18.40;54.80
6462;DHT22;3264;42.862;25.098;2022-12-29T10:41:54;17.50;52.00
6462;DHT22;3264;42.862;25.098;2022-12-29T10:44:28;18.00;52.60
6462;DHT22;3264;42.862;25.098;2022-12-29T10:47:02;18.60;51.90
6462;DHT22;3264;42.862;25.098;2022-12-29T10:49:37;16.80;51.00
6462;DHT22;3264;42.862;25.098;2022-12-29T10:52:08;17.80;53.10
6462;DHT22;3264;42.862;25.098;2022-12-29T10:54:41;18.50;52.20
6462;DHT22;3264;42.862;25.098;2022-12-29T10:57:13;18.60;52.00
6462;DHT22;3264;42.862;25.098;2022-12-29T10:59:43;17.80;49.90
6462;DHT22;3264;42.862;25.098;2022-12-29T11:05:10;17.20;49.40
6462;DHT22;3264;42.862;25.098;2022-12-29T11:07:39;17.80;51.20
6462;DHT22;3264;42.862;25.098;2022-12-29T11:10:19;16.50;50.40
6462;DHT22;3264;42.862;25.098;2022-12-29T11:13:00;16.60;54.00
6462;DHT22;3264;42.862;25.098;2022-12-29T11:15:39;17.70;53.10
6462;DHT22;3264;42.862;25.098;2022-12-29T11:18:22;17.00;51.00
6462;DHT22;3264;42.862;25.098;2022-12-29T11:20:52;17.40;51.60
6462;DHT22;3264;42.862;25.098;2022-12-29T11:23:26;15.70;53.20
6462;DHT22;3264;42.862;25.098;2022-12-29T11:26:24;15.50;54.20
6462;DHT22;3264;42.862;25.098;2022-12-29T11:29:23;17.00;54.10
6462;DHT22;3264;42.862;25.098;2022-12-29T11:31:53;15.70;54.20
6462;DHT22;3264;42.862;25.098;2022-12-29T11:34:24;14.30;56.50
6462;DHT22;3264;42.862;25.098;2022-12-29T11:36:57;14.30;57.80
6462;DHT22;3264;42.862;25.098;2022-12-29T11:39:40;14.20;58.40
6462;DHT22;3264;42.862;25.098;2022-12-29T11:42:15;14.20;58.70
6462;DHT22;3264;42.862;25.098;2022-12-29T11:44:46;14.90;59.10
6462;DHT22;3264;42.862;25.098;2022-12-29T11:47:23;17.40;55.80
6462;DHT22;3264;42.862;25.098;2022-12-29T11:49:56;18.60;52.20
6462;DHT22;3264;42.862;25.098;2022-12-29T11:52:28;18.90;50.40
6462;DHT22;3264;42.862;25.098;2022-12-29T11:54:57;18.60;52.40
6462;DHT22;3264;42.862;25.098;2022-12-29T11:57:27;18.90;51.00
6462;DHT22;3264;42.862;25.098;2022-12-29T11:59:56;17.00;49.90
6462;DHT22;3264;42.862;25.098;2022-12-29T12:02:39;17.20;53.40
6462;DHT22;3264;42.862;25.098;2022-12-29T12:05:20;18.20;53.50
6462;DHT22;3264;42.862;25.098;2022-12-29T12:07:54;17.20;52.30
6462;DHT22;3264;42.862;25.098;2022-12-29T12:10:27;16.50;53.50
6462;DHT22;3264;42.862;25.098;2022-12-29T12:13:08;17.90;54.00
6462;DHT22;3264;42.862;25.098;2022-12-29T12:15:46;19.20;51.40
6462;DHT22;3264;42.862;25.098;2022-12-29T12:18:21;20.10;49.70
6462;DHT22;3264;42.862;25.098;2022-12-29T12:20:55;20.50;47.50
6462;DHT22;3264;42.862;25.098;2022-12-29T12:23:36;19.40;49.00
6462;DHT22;3264;42.862;25.098;2022-12-29T12:26:12;19.20;50.50
6462;DHT22;3264;42.862;25.098;2022-12-29T12:28:48;17.30;49.70
6462;DHT22;3264;42.862;25.098;2022-12-29T12:31:36;18.70;51.70
6462;DHT22;3264;42.862;25.098;2022-12-29T12:34:26;18.20;50.90
6462;DHT22;3264;42.862;25.098;2022-12-29T12:40:11;17.20;54.90
6462;DHT22;3264;42.862;25.098;2022-12-29T12:42:51;16.50;54.50
6462;DHT22;3264;42.862;25.098;2022-12-29T12:45:41;15.60;55.90
6462;DHT22;3264;42.862;25.098;2022-12-29T12:48:26;15.80;56.40
6462;DHT22;3264;42.862;25.098;2022-12-29T12:51:05;15.30;56.60
6462;DHT22;3264;42.862;25.098;2022-12-29T12:54:06;14.20;57.80
6462;DHT22;3264;42.862;25.098;2022-12-29T12:56:47;14.80;58.10
6462;DHT22;3264;42.862;25.098;2022-12-29T12:59:30;15.10;59.00
6462;DHT22;3264;42.862;25.098;2022-12-29T13:02:11;14.50;58.20
6462;DHT22;3264;42.862;25.098;2022-12-29T13:04:54;14.30;58.50
6462;DHT22;3264;42.862;25.098;2022-12-29T13:07:36;15.30;60.40
6462;DHT22;3264;42.862;25.098;2022-12-29T13:10:30;15.70;58.80
6462;DHT22;3264;42.862;25.098;2022-12-29T13:13:14;15.70;58.80
6462;DHT22;3264;42.862;25.098;2022-12-29T13:15:52;16.50;59.00
6462;DHT22;3264;42.862;25.098;2022-12-29T13:18:28;16.00;57.50
6462;DHT22;3264;42.862;25.098;2022-12-29T13:21:09;15.60;58.10
6462;DHT22;3264;42.862;25.098;2022-12-29T13:23:46;15.30;58.30
6462;DHT22;3264;42.862;25.098;2022-12-29T13:26:22;14.90;58.20
6462;DHT22;3264;42.862;25.098;2022-12-29T13:28:55;14.70;59.20
6462;DHT22;3264;42.862;25.098;2022-12-29T13:31:29;14.70;60.30
6462;DHT22;3264;42.862;25.098;2022-12-29T13:34:03;15.20;60.70
6462;DHT22;3264;42.862;25.098;2022-12-29T13:36:37;14.80;59.40
6462;DHT22;3264;42.862;25.098;2022-12-29T13:39:13;14.30;59.60
6462;DHT22;3264;42.862;25.098;2022-12-29T13:41:47;13.60;60.40
6462;DHT22;3264;42.862;25.098;2022-12-29T13:44:20;13.20;61.40
6462;DHT22;3264;42.862;25.098;2022-12-29T13:46:49;13.50;62.70
6462;DHT22;3264;42.862;25.098;2022-12-29T13:49:20;13.60;62.40
6462;DHT22;3264;42.862;25.098;2022-12-29T13:51:51;13.30;62.20
6462;DHT22;3264;42.862;25.098;2022-12-29T13:54:30;13.70;63.30
6462;DHT22;3264;42.862;25.098;2022-12-29T13:57:12;13.30;62.10
6462;DHT22;3264;42.862;25.098;2022-12-29T13:59:50;13.00;63.50
6462;DHT22;3264;42.862;25.098;2022-12-29T14:02:26;12.80;64.40
6462;DHT22;3264;42.862;25.098;2022-12-29T14:05:01;12.70;64.30
6462;DHT22;3264;42.862;25.098;2022-12-29T14:07:29;12.40;65.30
6462;DHT22;3264;42.862;25.098;2022-12-29T14:10:05;12.40;65.20
6462;DHT22;3264;42.862;25.098;2022-12-29T14:12:39;12.60;65.60
6462;DHT22;3264;42.862;25.098;2022-12-29T14:15:22;13.00;64.20
6462;DHT22;3264;42.862;25.098;2022-12-29T14:18:10;12.80;64.00
6462;DHT22;3264;42.862;25.098;2022-12-29T14:20:39;12.50;64.70
6462;DHT22;3264;42.862;25.098;2022-12-29T14:23:37;12.40;65.80
6462;DHT22;3264;42.862;25.098;2022-12-29T14:26:17;12.40;66.00
6462;DHT22;3264;42.862;25.098;2022-12-29T14:28:49;12.10;66.10
6462;DHT22;3264;42.862;25.098;2022-12-29T14:31:34;12.00;67.10
6462;DHT22;3264;42.862;25.098;2022-12-29T14:34:29;12.00;68.20
6462;DHT22;3264;42.862;25.098;2022-12-29T14:36:59;12.00;67.70
6462;DHT22;3264;42.862;25.098;2022-12-29T14:39:36;11.80;68.00
6462;DHT22;3264;42.862;25.098;2022-12-29T14:42:06;11.60;68.10
6462;DHT22;3264;42.862;25.098;2022-12-29T14:44:48;11.40;70.00
6462;DHT22;3264;42.862;25.098;2022-12-29T14:47:20;11.20;72.00
6462;DHT22;3264;42.862;25.098;2022-12-29T14:49:51;11.10;73.10
6462;DHT22;3264;42.862;25.098;2022-12-29T14:52:22;11.00;73.10
6462;DHT22;3264;42.862;25.098;2022-12-29T14:54:53;10.80;73.50
6462;DHT22;3264;42.862;25.098;2022-12-29T14:57:33;10.60;75.10
6462;DHT22;3264;42.862;25.098;2022-12-29T15:00:14;10.40;75.60
6462;DHT22;3264;42.862;25.098;2022-12-29T15:02:46;10.30;77.90
6462;DHT22;3264;42.862;25.098;2022-12-29T15:05:32;10.20;78.50
6462;DHT22;3264;42.862;25.098;2022-12-29T15:08:03;10.00;80.60
6462;DHT22;3264;42.862;25.098;2022-12-29T15:10:41;9.80;85.60
6462;DHT22;3264;42.862;25.098;2022-12-29T15:13:17;9.60;87.30
6462;DHT22;3264;42.862;25.098;2022-12-29T15:15:47;9.50;89.40
6462;DHT22;3264;42.862;25.098;2022-12-29T15:18:26;9.30;90.40
6462;DHT22;3264;42.862;25.098;2022-12-29T15:20:56;9.30;90.80
6462;DHT22;3264;42.862;25.098;2022-12-29T15:23:26;9.20;91.10
6462;DHT22;3264;42.862;25.098;2022-12-29T15:25:57;9.20;91.20
6462;DHT22;3264;42.862;25.098;2022-12-29T15:28:27;9.10;91.50
6462;DHT22;3264;42.862;25.098;2022-12-29T15:31:03;9.00;91.70
6462;DHT22;3264;42.862;25.098;2022-12-29T15:33:39;8.90;92.20
6462;DHT22;3264;42.862;25.098;2022-12-29T15:36:11;8.80;92.30
6462;DHT22;3264;42.862;25.098;2022-12-29T15:38:40;8.80;93.00
6462;DHT22;3264;42.862;25.098;2022-12-29T15:41:23;8.70;93.30
6462;DHT22;3264;42.862;25.098;2022-12-29T15:43:59;8.50;93.80
6462;DHT22;3264;42.862;25.098;2022-12-29T15:46:33;8.40;94.20
6462;DHT22;3264;42.862;25.098;2022-12-29T15:49:05;8.20;95.00
6462;DHT22;3264;42.862;25.098;2022-12-29T15:51:36;8.10;95.70
6462;DHT22;3264;42.862;25.098;2022-12-29T15:54:06;8.10;96.10
6462;DHT22;3264;42.862;25.098;2022-12-29T15:56:43;8.00;96.60
6462;DHT22;3264;42.862;25.098;2022-12-29T15:59:26;8.00;97.80
6462;DHT22;3264;42.862;25.098;2022-12-29T16:01:56;8.00;97.40
6462;DHT22;3264;42.862;25.098;2022-12-29T16:04:27;7.90;97.90
6462;DHT22;3264;42.862;25.098;2022-12-29T16:06:57;7.80;98.00
6462;DHT22;3264;42.862;25.098;2022-12-29T16:09:33;7.80;98.60
6462;DHT22;3264;42.862;25.098;2022-12-29T16:12:04;7.70;99.70
6462;DHT22;3264;42.862;25.098;2022-12-29T16:14:43;7.70;99.10
6462;DHT22;3264;42.862;25.098;2022-12-29T16:17:16;7.50;99.50
6462;DHT22;3264;42.862;25.098;2022-12-29T16:19:50;7.40;99.90
6462;DHT22;3264;42.862;25.098;2022-12-29T16:22:26;7.40;99.90
6462;DHT22;3264;42.862;25.098;2022-12-29T16:24:58;7.30;99.90
6462;DHT22;3264;42.862;25.098;2022-12-29T16:27:35;7.10;99.90
6462;DHT22;3264;42.862;25.098;2022-12-29T16:30:06;7.00;99.90
6462;DHT22;3264;42.862;25.098;2022-12-29T16:32:45;7.10;99.90
6462;DHT22;3264;42.862;25.098;2022-12-29T16:35:17;6.90;99.90
6462;DHT22;3264;42.862;25.098;2022-12-29T16:37:47;6.80;99.90
6462;DHT22;3264;42.862;25.098;2022-12-29T16:40:26;6.80;99.90
6462;DHT22;3264;42.862;25.098;2022-12-29T16:43:00;6.60;99.90
6462;DHT22;3264;42.862;25.098;2022-12-29T16:48:53;6.70;99.90